sensor_id;sensor_type;location;lat;lon;timestamp;pressure;altitude;pressure_sealevel;temperature;humidity
20630;BME280;17386;43.846;25.950;2023-06-04T00:00:04;101557.09;;;20.20;48.18
20630;BME280;17386;43.846;25.950;2023-06-04T00:02:30;101561.06;;;20.14;48.31
20630;BME280;17386;43.846;25.950;2023-06-04T00:04:56;101559.31;;;20.13;48.39
20630;BME280;17386;43.846;25.950;2023-06-04T00:07:21;101556.53;;;20.15;48.26
20630;BME280;17386;43.846;25.950;2023-06-04T00:09:47;101564.03;;;20.10;48.37
20630;BME280;17386;43.846;25.950;2023-06-04T00:12:13;101550.84;;;20.05;47.96
20630;BME280;17386;43.846;25.950;2023-06-04T00:14:38;101556.25;;;20.05;47.84
20630;BME280;17386;43.846;25.950;2023-06-04T00:17:04;101553.72;;;19.88;47.92
20630;BME280;17386;43.846;25.950;2023-06-04T00:19:29;101557.47;;;19.85;47.90
20630;BME280;17386;43.846;25.950;2023-06-04T00:21:55;101551.31;;;19.83;47.51
20630;BME280;17386;43.846;25.950;2023-06-04T00:24:20;101556.88;;;19.80;47.57
20630;BME280;17386;43.846;25.950;2023-06-04T00:26:46;101547.34;;;19.75;47.23
20630;BME280;17386;43.846;25.950;2023-06-04T00:29:11;101553.78;;;19.72;46.92
20630;BME280;17386;43.846;25.950;2023-06-04T00:31:37;101563.81;;;19.70;46.93
20630;BME280;17386;43.846;25.950;2023-06-04T00:34:03;101561.13;;;19.70;46.29
20630;BME280;17386;43.846;25.950;2023-06-04T00:36:29;101564.59;;;19.72;45.93
20630;BME280;17386;43.846;25.950;2023-06-04T00:38:54;101562.75;;;19.73;45.82
20630;BME280;17386;43.846;25.950;2023-06-04T00:41:20;101557.94;;;19.63;45.55
20630;BME280;17386;43.846;25.950;2023-06-04T00:43:45;101561.66;;;19.61;45.40
20630;BME280;17386;43.846;25.950;2023-06-04T00:46:21;101573.25;;;19.63;45.50
20630;BME280;17386;43.846;25.950;2023-06-04T00:48:46;101563.22;;;19.65;45.13
20630;BME280;17386;43.846;25.950;2023-06-04T00:51:12;101559.34;;;19.69;45.34
20630;BME280;17386;43.846;25.950;2023-06-04T00:53:38;101555.13;;;19.65;44.93
20630;BME280;17386;43.846;25.950;2023-06-04T00:56:03;101559.75;;;19.63;45.03
20630;BME280;17386;43.846;25.950;2023-06-04T00:58:31;101569.84;;;19.59;45.11
20630;BME280;17386;43.846;25.950;2023-06-04T01:00:59;101559.94;;;19.60;45.34
20630;BME280;17386;43.846;25.950;2023-06-04T01:03:29;101568.97;;;19.59;45.33
20630;BME280;17386;43.846;25.950;2023-06-04T01:08:48;101569.16;;;19.56;45.40
20630;BME280;17386;43.846;25.950;2023-06-04T01:11:14;101574.38;;;19.59;45.55
20630;BME280;17386;43.846;25.950;2023-06-04T01:13:40;101580.78;;;19.56;45.90
20630;BME280;17386;43.846;25.950;2023-06-04T01:16:05;101567.16;;;19.59;45.80
20630;BME280;17386;43.846;25.950;2023-06-04T01:18:32;101570.00;;;19.56;46.05
20630;BME280;17386;43.846;25.950;2023-06-04T01:21:06;101575.81;;;19.49;46.39
20630;BME280;17386;43.846;25.950;2023-06-04T01:26:32;101567.94;;;19.46;46.42
20630;BME280;17386;43.846;25.950;2023-06-04T01:28:58;101562.06;;;19.39;46.61
20630;BME280;17386;43.846;25.950;2023-06-04T01:31:26;101566.38;;;19.41;47.14
20630;BME280;17386;43.846;25.950;2023-06-04T01:33:57;101559.47;;;19.37;46.96
20630;BME280;17386;43.846;25.950;2023-06-04T01:36:25;101570.31;;;19.36;47.23
20630;BME280;17386;43.846;25.950;2023-06-04T01:38:51;101570.22;;;19.37;47.31
20630;BME280;17386;43.846;25.950;2023-06-04T01:41:17;101568.06;;;19.28;47.86
20630;BME280;17386;43.846;25.950;2023-06-04T01:43:42;101577.09;;;19.27;47.76
20630;BME280;17386;43.846;25.950;2023-06-04T01:46:08;101588.84;;;19.26;47.99
20630;BME280;17386;43.846;25.950;2023-06-04T01:48:33;101586.25;;;19.25;47.86
20630;BME280;17386;43.846;25.950;2023-06-04T01:50:59;101585.94;;;19.15;48.46
20630;BME280;17386;43.846;25.950;2023-06-04T01:53:25;101587.81;;;19.13;48.56
20630;BME280;17386;43.846;25.950;2023-06-04T01:55:51;101594.94;;;19.14;48.89
20630;BME280;17386;43.846;25.950;2023-06-04T01:58:18;101589.56;;;19.14;48.59
20630;BME280;17386;43.846;25.950;2023-06-04T02:00:54;101600.72;;;19.08;49.06
20630;BME280;17386;43.846;25.950;2023-06-04T02:03:21;101594.81;;;19.01;49.13
20630;BME280;17386;43.846;25.950;2023-06-04T02:05:47;101585.91;;;18.99;49.23
20630;BME280;17386;43.846;25.950;2023-06-04T02:08:15;101587.13;;;18.94;49.62
20630;BME280;17386;43.846;25.950;2023-06-04T02:10:45;101597.91;;;18.94;49.97
20630;BME280;17386;43.846;25.950;2023-06-04T02:13:11;101598.19;;;18.89;50.33
20630;BME280;17386;43.846;25.950;2023-06-04T02:15:36;101599.41;;;18.83;50.27
20630;BME280;17386;43.846;25.950;2023-06-04T02:18:16;101603.81;;;18.84;50.63
20630;BME280;17386;43.846;25.950;2023-06-04T02:20:43;101600.19;;;18.85;50.70
20630;BME280;17386;43.846;25.950;2023-06-04T02:23:09;101600.38;;;18.82;50.70
20630;BME280;17386;43.846;25.950;2023-06-04T02:25:34;101595.47;;;18.73;51.07
20630;BME280;17386;43.846;25.950;2023-06-04T02:28:00;101599.75;;;18.77;51.36
20630;BME280;17386;43.846;25.950;2023-06-04T02:30:26;101613.19;;;18.77;51.36
20630;BME280;17386;43.846;25.950;2023-06-04T02:32:51;101610.41;;;18.79;51.59
20630;BME280;17386;43.846;25.950;2023-06-04T02:35:16;101614.59;;;18.69;51.57
20630;BME280;17386;43.846;25.950;2023-06-04T02:37:43;101619.13;;;18.68;51.84
20630;BME280;17386;43.846;25.950;2023-06-04T02:40:09;101618.31;;;18.66;52.17
20630;BME280;17386;43.846;25.950;2023-06-04T02:42:35;101622.56;;;18.70;51.62
20630;BME280;17386;43.846;25.950;2023-06-04T02:45:00;101630.47;;;18.73;52.01
20630;BME280;17386;43.846;25.950;2023-06-04T02:47:27;101635.59;;;18.78;51.85
20630;BME280;17386;43.846;25.950;2023-06-04T02:49:52;101636.38;;;18.80;51.98
20630;BME280;17386;43.846;25.950;2023-06-04T02:52:17;101631.28;;;18.75;51.92
20630;BME280;17386;43.846;25.950;2023-06-04T02:54:43;101639.59;;;18.71;52.52
20630;BME280;17386;43.846;25.950;2023-06-04T02:57:08;101633.16;;;18.73;52.60
20630;BME280;17386;43.846;25.950;2023-06-04T02:59:34;101632.81;;;18.79;52.38
20630;BME280;17386;43.846;25.950;2023-06-04T03:02:00;101628.59;;;18.75;52.73
20630;BME280;17386;43.846;25.950;2023-06-04T03:04:25;101634.75;;;18.77;52.77
20630;BME280;17386;43.846;25.950;2023-06-04T03:06:51;101638.06;;;18.82;52.62
20630;BME280;17386;43.846;25.950;2023-06-04T03:09:23;101643.44;;;18.82;52.62
20630;BME280;17386;43.846;25.950;2023-06-04T03:11:48;101644.63;;;18.77;52.90
20630;BME280;17386;43.846;25.950;2023-06-04T03:14:14;101656.28;;;18.77;53.24
20630;BME280;17386;43.846;25.950;2023-06-04T03:16:39;101657.31;;;18.75;53.67
20630;BME280;17386;43.846;25.950;2023-06-04T03:19:05;101652.97;;;18.72;53.92
20630;BME280;17386;43.846;25.950;2023-06-04T03:21:30;101656.78;;;18.68;54.25
20630;BME280;17386;43.846;25.950;2023-06-04T03:23:56;101661.53;;;18.63;54.42
20630;BME280;17386;43.846;25.950;2023-06-04T03:26:21;101659.47;;;18.68;54.49
20630;BME280;17386;43.846;25.950;2023-06-04T03:28:47;101660.16;;;18.72;54.31
20630;BME280;17386;43.846;25.950;2023-06-04T03:31:12;101662.00;;;18.71;54.64
20630;BME280;17386;43.846;25.950;2023-06-04T03:33:38;101662.00;;;18.71;54.58
20630;BME280;17386;43.846;25.950;2023-06-04T03:36:03;101665.66;;;18.70;54.78
20630;BME280;17386;43.846;25.950;2023-06-04T03:38:29;101665.47;;;18.73;54.87
20630;BME280;17386;43.846;25.950;2023-06-04T03:40:54;101668.00;;;18.76;55.17
20630;BME280;17386;43.846;25.950;2023-06-04T03:43:21;101665.94;;;18.81;55.22
20630;BME280;17386;43.846;25.950;2023-06-04T03:45:46;101673.91;;;18.83;54.91
20630;BME280;17386;43.846;25.950;2023-06-04T03:48:12;101658.63;;;18.83;55.18
20630;BME280;17386;43.846;25.950;2023-06-04T03:50:37;101662.19;;;18.84;55.20
20630;BME280;17386;43.846;25.950;2023-06-04T03:53:03;101664.97;;;18.82;55.84
20630;BME280;17386;43.846;25.950;2023-06-04T03:55:31;101669.16;;;18.88;55.50
20630;BME280;17386;43.846;25.950;2023-06-04T03:57:59;101678.78;;;18.92;55.33
20630;BME280;17386;43.846;25.950;2023-06-04T04:00:25;101678.69;;;18.94;55.51
20630;BME280;17386;43.846;25.950;2023-06-04T04:02:50;101680.69;;;18.90;56.15
20630;BME280;17386;43.846;25.950;2023-06-04T04:05:15;101680.34;;;18.80;56.10
20630;BME280;17386;43.846;25.950;2023-06-04T04:07:41;101682.50;;;18.74;56.58
20630;BME280;17386;43.846;25.950;2023-06-04T04:10:07;101672.59;;;18.74;56.95
20630;BME280;17386;43.846;25.950;2023-06-04T04:12:33;101683.81;;;18.82;57.02
20630;BME280;17386;43.846;25.950;2023-06-04T04:14:58;101688.78;;;18.90;56.90
20630;BME280;17386;43.846;25.950;2023-06-04T04:17:24;101687.38;;;18.83;57.26
20630;BME280;17386;43.846;25.950;2023-06-04T04:19:49;101693.28;;;18.90;56.40
20630;BME280;17386;43.846;25.950;2023-06-04T04:22:14;101690.22;;;18.80;56.80
20630;BME280;17386;43.846;25.950;2023-06-04T04:24:43;101694.75;;;18.79;57.13
20630;BME280;17386;43.846;25.950;2023-06-04T04:27:09;101697.44;;;18.79;57.40
20630;BME280;17386;43.846;25.950;2023-06-04T04:29:39;101699.97;;;18.82;57.20
20630;BME280;17386;43.846;25.950;2023-06-04T04:32:04;101699.19;;;18.80;57.19
20630;BME280;17386;43.846;25.950;2023-06-04T04:34:52;101696.56;;;18.79;56.89
20630;BME280;17386;43.846;25.950;2023-06-04T04:37:19;101705.50;;;18.79;56.89
20630;BME280;17386;43.846;25.950;2023-06-04T04:39:47;101708.63;;;18.72;56.99
20630;BME280;17386;43.846;25.950;2023-06-04T04:42:12;101707.19;;;18.65;57.15
20630;BME280;17386;43.846;25.950;2023-06-04T04:44:37;101712.44;;;18.68;57.17
20630;BME280;17386;43.846;25.950;2023-06-04T04:47:03;101709.34;;;18.75;56.98
20630;BME280;17386;43.846;25.950;2023-06-04T04:49:28;101706.22;;;18.83;56.91
20630;BME280;17386;43.846;25.950;2023-06-04T04:51:54;101704.56;;;18.80;56.44
20630;BME280;17386;43.846;25.950;2023-06-04T04:54:19;101709.25;;;18.77;56.61
20630;BME280;17386;43.846;25.950;2023-06-04T04:56:45;101708.53;;;18.73;56.63
20630;BME280;17386;43.846;25.950;2023-06-04T04:59:10;101716.13;;;18.82;56.49
20630;BME280;17386;43.846;25.950;2023-06-04T05:01:35;101717.28;;;18.94;56.06
20630;BME280;17386;43.846;25.950;2023-06-04T05:04:01;101723.00;;;19.04;55.89
20630;BME280;17386;43.846;25.950;2023-06-04T05:06:26;101715.38;;;19.12;55.59
20630;BME280;17386;43.846;25.950;2023-06-04T05:08:53;101718.69;;;19.17;55.24
20630;BME280;17386;43.846;25.950;2023-06-04T05:11:18;101714.69;;;19.24;55.36
20630;BME280;17386;43.846;25.950;2023-06-04T05:13:44;101715.28;;;19.13;55.31
20630;BME280;17386;43.846;25.950;2023-06-04T05:16:09;101713.81;;;19.24;55.28
20630;BME280;17386;43.846;25.950;2023-06-04T05:18:37;101721.38;;;19.33;55.33
20630;BME280;17386;43.846;25.950;2023-06-04T05:21:05;101714.78;;;19.38;55.03
20630;BME280;17386;43.846;25.950;2023-06-04T05:23:31;101718.66;;;19.49;54.89
20630;BME280;17386;43.846;25.950;2023-06-04T05:25:58;101720.50;;;19.48;54.91
20630;BME280;17386;43.846;25.950;2023-06-04T05:28:24;101724.56;;;19.55;54.89
20630;BME280;17386;43.846;25.950;2023-06-04T05:30:51;101722.16;;;19.66;54.44
20630;BME280;17386;43.846;25.950;2023-06-04T05:33:17;101730.50;;;19.78;54.68
20630;BME280;17386;43.846;25.950;2023-06-04T05:35:51;101732.84;;;19.84;53.95
20630;BME280;17386;43.846;25.950;2023-06-04T05:38:17;101735.31;;;20.03;53.63
20630;BME280;17386;43.846;25.950;2023-06-04T05:40:46;101744.56;;;19.99;54.03
20630;BME280;17386;43.846;25.950;2023-06-04T05:43:12;101748.16;;;20.13;53.87
20630;BME280;17386;43.846;25.950;2023-06-04T05:45:38;101748.00;;;20.31;53.15
20630;BME280;17386;43.846;25.950;2023-06-04T05:48:04;101751.56;;;20.31;52.74
20630;BME280;17386;43.846;25.950;2023-06-04T05:50:30;101747.56;;;20.38;52.74
20630;BME280;17386;43.846;25.950;2023-06-04T05:52:56;101749.72;;;20.47;52.40
20630;BME280;17386;43.846;25.950;2023-06-04T05:55:22;101748.97;;;20.45;52.76
20630;BME280;17386;43.846;25.950;2023-06-04T05:57:48;101743.91;;;20.39;53.44
20630;BME280;17386;43.846;25.950;2023-06-04T06:00:14;101755.72;;;20.37;53.89
20630;BME280;17386;43.846;25.950;2023-06-04T06:02:40;101752.59;;;20.44;53.82
20630;BME280;17386;43.846;25.950;2023-06-04T06:05:06;101754.25;;;20.47;53.83
20630;BME280;17386;43.846;25.950;2023-06-04T06:07:33;101762.25;;;20.48;54.02
20630;BME280;17386;43.846;25.950;2023-06-04T06:09:58;101760.41;;;20.49;53.40
20630;BME280;17386;43.846;25.950;2023-06-04T06:12:24;101760.69;;;20.44;53.63
20630;BME280;17386;43.846;25.950;2023-06-04T06:14:49;101766.38;;;20.24;54.13
20630;BME280;17386;43.846;25.950;2023-06-04T06:17:15;101763.28;;;20.16;55.05
20630;BME280;17386;43.846;25.950;2023-06-04T06:19:40;101779.88;;;20.24;55.19
20630;BME280;17386;43.846;25.950;2023-06-04T06:22:05;101769.69;;;20.29;55.32
20630;BME280;17386;43.846;25.950;2023-06-04T06:24:31;101763.25;;;20.32;55.01
20630;BME280;17386;43.846;25.950;2023-06-04T06:26:56;101768.84;;;20.43;55.20
20630;BME280;17386;43.846;25.950;2023-06-04T06:29:22;101769.81;;;20.42;54.85
20630;BME280;17386;43.846;25.950;2023-06-04T06:31:47;101774.13;;;20.46;54.43
20630;BME280;17386;43.846;25.950;2023-06-04T06:34:13;101769.47;;;20.48;54.34
20630;BME280;17386;43.846;25.950;2023-06-04T06:36:38;101771.97;;;20.51;54.31
20630;BME280;17386;43.846;25.950;2023-06-04T06:39:03;101775.97;;;20.44;54.86
20630;BME280;17386;43.846;25.950;2023-06-04T06:41:29;101771.66;;;20.41;55.37
20630;BME280;17386;43.846;25.950;2023-06-04T06:43:57;101777.81;;;20.43;55.58
20630;BME280;17386;43.846;25.950;2023-06-04T06:46:23;101770.78;;;20.41;56.00
20630;BME280;17386;43.846;25.950;2023-06-04T06:48:48;101775.69;;;20.34;56.64
20630;BME280;17386;43.846;25.950;2023-06-04T06:51:14;101772.41;;;20.43;56.82
20630;BME280;17386;43.846;25.950;2023-06-04T06:53:39;101774.00;;;20.47;56.85
20630;BME280;17386;43.846;25.950;2023-06-04T06:56:05;101776.25;;;20.55;57.02
20630;BME280;17386;43.846;25.950;2023-06-04T06:58:31;101780.31;;;20.62;57.60
20630;BME280;17386;43.846;25.950;2023-06-04T07:00:56;101785.22;;;20.70;57.41
20630;BME280;17386;43.846;25.950;2023-06-04T07:03:22;101785.06;;;20.73;57.44
20630;BME280;17386;43.846;25.950;2023-06-04T07:05:47;101784.97;;;20.74;57.54
20630;BME280;17386;43.846;25.950;2023-06-04T07:08:13;101787.34;;;20.65;58.69
20630;BME280;17386;43.846;25.950;2023-06-04T07:10:39;101781.38;;;20.74;58.47
20630;BME280;17386;43.846;25.950;2023-06-04T07:13:04;101781.41;;;20.88;58.48
20630;BME280;17386;43.846;25.950;2023-06-04T07:15:30;101779.84;;;20.98;58.45
20630;BME280;17386;43.846;25.950;2023-06-04T07:17:55;101777.44;;;21.08;58.75
20630;BME280;17386;43.846;25.950;2023-06-04T07:20:21;101787.03;;;21.28;58.81
20630;BME280;17386;43.846;25.950;2023-06-04T07:22:46;101780.81;;;21.40;58.39
20630;BME280;17386;43.846;25.950;2023-06-04T07:25:11;101781.97;;;21.50;58.14
20630;BME280;17386;43.846;25.950;2023-06-04T07:27:37;101790.53;;;21.57;58.23
20630;BME280;17386;43.846;25.950;2023-06-04T07:30:02;101779.63;;;21.58;58.45
20630;BME280;17386;43.846;25.950;2023-06-04T07:32:28;101793.09;;;21.73;58.52
20630;BME280;17386;43.846;25.950;2023-06-04T07:34:53;101787.50;;;21.76;58.12
20630;BME280;17386;43.846;25.950;2023-06-04T07:37:19;101790.22;;;21.89;58.05
20630;BME280;17386;43.846;25.950;2023-06-04T07:39:44;101786.59;;;21.90;57.22
20630;BME280;17386;43.846;25.950;2023-06-04T07:42:10;101780.03;;;22.06;57.31
20630;BME280;17386;43.846;25.950;2023-06-04T07:44:36;101780.44;;;22.27;57.10
20630;BME280;17386;43.846;25.950;2023-06-04T07:47:03;101773.66;;;22.47;56.71
20630;BME280;17386;43.846;25.950;2023-06-04T07:49:28;101778.34;;;22.58;56.23
20630;BME280;17386;43.846;25.950;2023-06-04T07:51:54;101785.38;;;22.73;54.58
20630;BME280;17386;43.846;25.950;2023-06-04T07:54:19;101782.78;;;22.72;53.40
20630;BME280;17386;43.846;25.950;2023-06-04T07:59:10;101792.47;;;22.88;49.58
20630;BME280;17386;43.846;25.950;2023-06-04T08:01:35;101782.91;;;22.96;49.59
20630;BME280;17386;43.846;25.950;2023-06-04T08:04:00;101784.53;;;22.98;49.68
20630;BME280;17386;43.846;25.950;2023-06-04T08:06:26;101787.09;;;23.12;49.50
20630;BME280;17386;43.846;25.950;2023-06-04T08:08:52;101776.66;;;23.32;48.76
20630;BME280;17386;43.846;25.950;2023-06-04T08:11:18;101774.50;;;23.37;49.12
20630;BME280;17386;43.846;25.950;2023-06-04T08:13:43;101775.38;;;23.37;47.49
20630;BME280;17386;43.846;25.950;2023-06-04T08:16:09;101789.22;;;23.45;44.66
20630;BME280;17386;43.846;25.950;2023-06-04T08:18:38;101785.59;;;23.58;43.33
20630;BME280;17386;43.846;25.950;2023-06-04T08:21:05;101780.31;;;23.69;42.02
20630;BME280;17386;43.846;25.950;2023-06-04T08:23:31;101783.88;;;23.69;41.50
20630;BME280;17386;43.846;25.950;2023-06-04T08:25:56;101787.50;;;23.81;41.84
20630;BME280;17386;43.846;25.950;2023-06-04T08:28:22;101789.13;;;23.84;41.17
20630;BME280;17386;43.846;25.950;2023-06-04T08:30:47;101793.00;;;23.92;41.02
20630;BME280;17386;43.846;25.950;2023-06-04T08:33:13;101797.50;;;24.05;40.65
20630;BME280;17386;43.846;25.950;2023-06-04T08:35:38;101795.94;;;24.13;40.68
20630;BME280;17386;43.846;25.950;2023-06-04T08:38:03;101788.72;;;24.25;40.52
20630;BME280;17386;43.846;25.950;2023-06-04T08:40:29;101790.31;;;24.27;41.11
20630;BME280;17386;43.846;25.950;2023-06-04T08:42:56;101796.69;;;24.39;39.40
20630;BME280;17386;43.846;25.950;2023-06-04T08:45:24;101803.44;;;24.34;39.43
20630;BME280;17386;43.846;25.950;2023-06-04T08:47:54;101803.38;;;24.46;39.27
20630;BME280;17386;43.846;25.950;2023-06-04T08:50:24;101799.91;;;24.44;39.91
20630;BME280;17386;43.846;25.950;2023-06-04T08:52:52;101798.84;;;24.58;39.83
20630;BME280;17386;43.846;25.950;2023-06-04T08:55:19;101790.69;;;24.58;38.76
20630;BME280;17386;43.846;25.950;2023-06-04T08:57:45;101790.56;;;24.60;38.58
20630;BME280;17386;43.846;25.950;2023-06-04T09:00:10;101799.22;;;24.65;39.19
20630;BME280;17386;43.846;25.950;2023-06-04T09:02:37;101807.38;;;24.76;39.09
20630;BME280;17386;43.846;25.950;2023-06-04T09:05:04;101795.69;;;24.87;38.79
20630;BME280;17386;43.846;25.950;2023-06-04T09:07:38;101801.72;;;24.90;38.70
20630;BME280;17386;43.846;25.950;2023-06-04T09:10:06;101797.53;;;24.97;38.49
20630;BME280;17386;43.846;25.950;2023-06-04T09:12:33;101801.16;;;25.09;38.87
20630;BME280;17386;43.846;25.950;2023-06-04T09:15:00;101800.94;;;25.12;38.61
20630;BME280;17386;43.846;25.950;2023-06-04T09:17:27;101789.78;;;25.15;38.39
20630;BME280;17386;43.846;25.950;2023-06-04T09:19:53;101804.50;;;25.35;38.72
20630;BME280;17386;43.846;25.950;2023-06-04T09:22:19;101804.00;;;25.41;39.28
20630;BME280;17386;43.846;25.950;2023-06-04T09:24:47;101803.75;;;25.44;39.46
20630;BME280;17386;43.846;25.950;2023-06-04T09:27:19;101801.91;;;25.33;39.41
20630;BME280;17386;43.846;25.950;2023-06-04T09:30:03;101800.19;;;25.32;39.28
20630;BME280;17386;43.846;25.950;2023-06-04T09:32:30;101811.31;;;25.41;38.27
20630;BME280;17386;43.846;25.950;2023-06-04T09:35:07;101808.56;;;25.52;37.97
20630;BME280;17386;43.846;25.950;2023-06-04T09:37:34;101807.47;;;25.54;38.04
20630;BME280;17386;43.846;25.950;2023-06-04T09:40:00;101806.31;;;25.68;36.49
20630;BME280;17386;43.846;25.950;2023-06-04T09:42:26;101813.38;;;25.82;35.95
20630;BME280;17386;43.846;25.950;2023-06-04T09:44:51;101806.00;;;25.94;35.21
20630;BME280;17386;43.846;25.950;2023-06-04T09:47:17;101797.75;;;25.95;35.31
20630;BME280;17386;43.846;25.950;2023-06-04T09:49:46;101807.47;;;26.09;35.58
20630;BME280;17386;43.846;25.950;2023-06-04T09:52:12;101803.91;;;26.29;35.72
20630;BME280;17386;43.846;25.950;2023-06-04T09:54:39;101806.88;;;26.58;35.46
20630;BME280;17386;43.846;25.950;2023-06-04T09:57:17;101805.53;;;26.73;34.85
20630;BME280;17386;43.846;25.950;2023-06-04T09:59:49;101802.78;;;26.94;34.49
20630;BME280;17386;43.846;25.950;2023-06-04T10:02:21;101800.88;;;27.06;34.52
20630;BME280;17386;43.846;25.950;2023-06-04T10:04:54;101799.75;;;27.39;33.76
20630;BME280;17386;43.846;25.950;2023-06-04T10:07:24;101750.81;;;27.17;33.67
20630;BME280;17386;43.846;25.950;2023-06-04T10:09:51;101786.34;;;27.86;33.37
20630;BME280;17386;43.846;25.950;2023-06-04T10:12:17;101788.25;;;28.34;32.91
20630;BME280;17386;43.846;25.950;2023-06-04T10:14:53;101780.84;;;28.93;31.73
20630;BME280;17386;43.846;25.950;2023-06-04T10:17:22;101778.44;;;29.54;30.48
20630;BME280;17386;43.846;25.950;2023-06-04T10:19:49;101773.00;;;29.90;29.80
20630;BME280;17386;43.846;25.950;2023-06-04T10:22:17;101778.53;;;29.98;29.16
20630;BME280;17386;43.846;25.950;2023-06-04T10:24:43;101771.78;;;30.20;28.81
20630;BME280;17386;43.846;25.950;2023-06-04T10:27:10;101781.97;;;30.71;27.72
20630;BME280;17386;43.846;25.950;2023-06-04T10:29:37;101767.56;;;31.29;27.55
20630;BME280;17386;43.846;25.950;2023-06-04T10:32:03;101780.09;;;31.32;27.16
20630;BME280;17386;43.846;25.950;2023-06-04T10:34:30;101775.97;;;31.36;27.76
20630;BME280;17386;43.846;25.950;2023-06-04T10:36:56;101777.00;;;31.35;27.82
20630;BME280;17386;43.846;25.950;2023-06-04T10:39:28;101774.91;;;31.29;27.18
20630;BME280;17386;43.846;25.950;2023-06-04T10:42:12;101767.88;;;31.26;27.02
20630;BME280;17386;43.846;25.950;2023-06-04T10:44:48;101765.84;;;31.79;26.71
20630;BME280;17386;43.846;25.950;2023-06-04T10:47:24;101764.66;;;31.98;26.41
20630;BME280;17386;43.846;25.950;2023-06-04T10:49:51;101765.38;;;31.92;26.10
20630;BME280;17386;43.846;25.950;2023-06-04T10:52:17;101768.03;;;31.75;26.63
20630;BME280;17386;43.846;25.950;2023-06-04T10:54:44;101756.56;;;31.80;26.43
20630;BME280;17386;43.846;25.950;2023-06-04T10:57:12;101751.13;;;32.12;26.01
20630;BME280;17386;43.846;25.950;2023-06-04T10:59:37;101745.78;;;32.44;25.72
20630;BME280;17386;43.846;25.950;2023-06-04T11:02:07;101741.28;;;32.59;25.82
20630;BME280;17386;43.846;25.950;2023-06-04T11:04:32;101740.09;;;32.61;25.60
20630;BME280;17386;43.846;25.950;2023-06-04T11:07:02;101743.97;;;33.00;24.62
20630;BME280;17386;43.846;25.950;2023-06-04T11:09:30;101741.31;;;33.14;24.55
20630;BME280;17386;43.846;25.950;2023-06-04T11:11:59;101747.97;;;32.89;24.20
20630;BME280;17386;43.846;25.950;2023-06-04T11:14:24;101747.59;;;32.92;24.60
20630;BME280;17386;43.846;25.950;2023-06-04T11:16:50;101745.25;;;32.64;24.52
20630;BME280;17386;43.846;25.950;2023-06-04T11:19:15;101745.69;;;31.62;25.39
20630;BME280;17386;43.846;25.950;2023-06-04T11:21:41;101744.75;;;32.20;25.30
20630;BME280;17386;43.846;25.950;2023-06-04T11:24:07;101739.41;;;32.19;24.81
20630;BME280;17386;43.846;25.950;2023-06-04T11:26:33;101740.97;;;32.29;24.24
20630;BME280;17386;43.846;25.950;2023-06-04T11:29:00;101730.22;;;31.45;24.75
20630;BME280;17386;43.846;25.950;2023-06-04T11:31:25;101744.25;;;31.08;25.66
20630;BME280;17386;43.846;25.950;2023-06-04T11:33:51;101744.84;;;30.15;26.28
20630;BME280;17386;43.846;25.950;2023-06-04T11:36:29;101733.56;;;29.65;27.15
20630;BME280;17386;43.846;25.950;2023-06-04T11:39:02;101742.22;;;29.05;28.29
20630;BME280;17386;43.846;25.950;2023-06-04T11:41:30;101734.63;;;28.89;28.05
20630;BME280;17386;43.846;25.950;2023-06-04T11:43:56;101736.09;;;28.84;28.37
20630;BME280;17386;43.846;25.950;2023-06-04T11:46:22;101739.47;;;28.58;29.03
20630;BME280;17386;43.846;25.950;2023-06-04T11:48:48;101738.91;;;28.45;29.26
20630;BME280;17386;43.846;25.950;2023-06-04T11:51:15;101734.75;;;28.12;29.58
20630;BME280;17386;43.846;25.950;2023-06-04T11:53:41;101720.09;;;27.84;30.11
20630;BME280;17386;43.846;25.950;2023-06-04T11:56:07;101730.44;;;27.90;30.51
20630;BME280;17386;43.846;25.950;2023-06-04T11:58:33;101735.19;;;27.78;30.65
20630;BME280;17386;43.846;25.950;2023-06-04T12:00:59;101728.16;;;27.76;30.64
20630;BME280;17386;43.846;25.950;2023-06-04T12:03:43;101718.22;;;27.15;30.70
20630;BME280;17386;43.846;25.950;2023-06-04T12:06:16;101732.00;;;27.14;30.86
20630;BME280;17386;43.846;25.950;2023-06-04T12:08:48;101728.28;;;27.24;30.98
20630;BME280;17386;43.846;25.950;2023-06-04T12:11:33;101730.16;;;27.14;30.84
20630;BME280;17386;43.846;25.950;2023-06-04T12:14:06;101727.56;;;27.13;31.60
20630;BME280;17386;43.846;25.950;2023-06-04T12:16:32;101711.91;;;27.15;31.32
20630;BME280;17386;43.846;25.950;2023-06-04T12:19:13;101725.31;;;27.27;30.97
20630;BME280;17386;43.846;25.950;2023-06-04T12:21:39;101722.13;;;27.22;31.29
20630;BME280;17386;43.846;25.950;2023-06-04T12:24:14;101724.13;;;27.20;30.73
20630;BME280;17386;43.846;25.950;2023-06-04T12:26:41;101729.19;;;27.25;31.06
20630;BME280;17386;43.846;25.950;2023-06-04T12:29:12;101722.41;;;27.19;31.42
20630;BME280;17386;43.846;25.950;2023-06-04T12:31:45;101715.25;;;27.18;31.30
20630;BME280;17386;43.846;25.950;2023-06-04T12:34:14;101722.75;;;27.36;31.42
20630;BME280;17386;43.846;25.950;2023-06-04T12:36:40;101725.47;;;27.36;30.94
20630;BME280;17386;43.846;25.950;2023-06-04T12:39:06;101726.56;;;27.14;31.21
20630;BME280;17386;43.846;25.950;2023-06-04T12:41:32;101730.19;;;26.63;31.77
20630;BME280;17386;43.846;25.950;2023-06-04T12:43:59;101714.34;;;26.78;31.94
20630;BME280;17386;43.846;25.950;2023-06-04T12:46:25;101728.38;;;26.83;31.52